createdAt,value
2023-02-07T00:01:26.752Z,109.95
2023-02-07T00:03:56.605Z,99.75
2023-02-07T00:06:27.507Z,97.80
2023-02-07T00:08:57.128Z,94.28
2023-02-07T00:11:28.652Z,95.22
2023-02-07T00:14:00.556Z,92.60
2023-02-07T00:19:00.301Z,92.53
2023-02-07T00:21:30.214Z,82.85
2023-02-07T00:23:59.269Z,91.67
2023-02-07T00:26:29.985Z,95.38
2023-02-07T00:28:59.109Z,95.40
2023-02-07T00:31:29.123Z,91.20
2023-02-07T00:34:00.957Z,92.43
2023-02-07T00:36:31.220Z,94.93
2023-02-07T00:39:02.864Z,98.10
2023-02-07T00:44:02.073Z,90.05
2023-02-07T00:46:30.753Z,90.40
2023-02-07T00:48:59.361Z,89.72
2023-02-07T00:51:29.336Z,90.97
2023-02-07T00:53:58.809Z,91.97
2023-02-07T00:56:29.836Z,88.07
2023-02-07T00:59:01.607Z,94.32
2023-02-07T01:01:33.422Z,87.30
2023-02-07T01:04:02.424Z,87.93
2023-02-07T01:06:33.782Z,106.17
2023-02-07T01:09:04.478Z,110.07
2023-02-07T01:11:36.291Z,95.73
2023-02-07T01:16:37.439Z,84.28
2023-02-07T01:19:09.047Z,89.23
2023-02-07T01:21:37.947Z,92.57
2023-02-07T01:24:07.410Z,93.33
2023-02-07T01:26:35.825Z,92.57
2023-02-07T01:29:07.878Z,102.00
2023-02-07T01:31:36.778Z,91.50
2023-02-07T01:34:05.883Z,86.97
2023-02-07T01:36:38.180Z,86.13
2023-02-07T01:39:08.084Z,93.80
2023-02-07T01:41:36.814Z,88.17
2023-02-07T01:44:09.558Z,92.17
2023-02-07T01:46:37.974Z,94.87
2023-02-07T01:49:14.593Z,92.97
2023-02-07T01:51:46.827Z,91.20
2023-02-07T01:54:17.251Z,90.13
2023-02-07T01:56:48.301Z,92.67
2023-02-07T01:59:18.796Z,97.85
2023-02-07T02:01:50.587Z,96.13
2023-02-07T02:06:51.847Z,95.93
2023-02-07T02:09:20.142Z,94.07
2023-02-07T02:12:14.949Z,96.10
2023-02-07T02:15:04.626Z,95.43
2023-02-07T02:17:43.730Z,95.80
2023-02-07T02:20:49.148Z,89.80
2023-02-07T02:23:24.907Z,87.83
2023-02-07T02:26:33.963Z,88.57
2023-02-07T02:29:38.549Z,90.27
2023-02-07T02:32:35.935Z,91.77
2023-02-07T02:35:14.559Z,94.83
2023-02-07T02:37:53.073Z,88.80
2023-02-07T02:40:29.295Z,91.60
2023-02-07T02:43:06.217Z,92.53
2023-02-07T02:45:40.053Z,88.80
2023-02-07T02:48:13.124Z,93.23
2023-02-07T02:50:48.316Z,85.90
2023-02-07T02:53:18.638Z,87.73
2023-02-07T02:56:06.448Z,89.60
2023-02-07T02:58:49.627Z,86.57
2023-02-07T03:01:25.172Z,94.10
2023-02-07T03:04:06.907Z,93.57
2023-02-07T03:06:50.641Z,86.45
2023-02-07T03:09:33.275Z,85.37
2023-02-07T03:12:11.063Z,84.70
2023-02-07T03:14:52.352Z,83.23
2023-02-07T03:17:28.095Z,83.55
2023-02-07T03:20:02.744Z,87.23
2023-02-07T03:22:35.493Z,86.20
2023-02-07T03:25:08.128Z,91.83
2023-02-07T03:27:38.932Z,95.80
2023-02-07T03:30:13.567Z,95.00
2023-02-07T03:32:52.361Z,95.60
2023-02-07T03:35:25.716Z,92.43
2023-02-07T03:37:59.819Z,90.50
2023-02-07T03:40:31.799Z,92.93
2023-02-07T03:43:05.768Z,88.43
2023-02-07T03:45:34.500Z,93.00
2023-02-07T03:48:05.449Z,95.17
2023-02-07T03:50:34.973Z,95.07
2023-02-07T03:53:06.313Z,116.13
2023-02-07T03:55:34.983Z,102.70
2023-02-07T03:58:03.705Z,100.53
2023-02-07T04:00:32.648Z,98.07
2023-02-07T04:03:00.965Z,95.30
2023-02-07T04:05:29.438Z,94.13
2023-02-07T04:07:58.284Z,99.93
2023-02-07T04:10:30.032Z,90.83
2023-02-07T04:12:59.197Z,92.40
2023-02-07T04:15:27.875Z,94.13
2023-02-07T04:17:56.088Z,92.17
2023-02-07T04:20:24.821Z,83.40
2023-02-07T04:22:53.610Z,84.50
2023-02-07T04:25:24.342Z,85.67
2023-02-07T04:27:58.364Z,81.40
2023-02-07T04:30:27.216Z,81.40
2023-02-07T04:32:56.247Z,83.10
2023-02-07T04:35:25.815Z,82.80
2023-02-07T04:37:54.372Z,83.60
2023-02-07T04:40:23.845Z,85.87
2023-02-07T04:42:57.027Z,82.17
2023-02-07T04:45:28.478Z,75.40
2023-02-07T04:47:58.276Z,80.33
2023-02-07T04:50:27.456Z,80.73
2023-02-07T04:52:56.238Z,88.23
2023-02-07T04:55:27.731Z,77.07
2023-02-07T05:00:26.344Z,79.47
2023-02-07T05:02:55.251Z,75.13
2023-02-07T05:05:24.712Z,83.13
2023-02-07T05:07:53.101Z,81.53
2023-02-07T05:10:21.806Z,79.73
2023-02-07T05:12:50.233Z,79.57
2023-02-07T05:15:20.088Z,73.70
2023-02-07T05:17:49.099Z,75.97
2023-02-07T05:20:18.365Z,78.03
2023-02-07T05:22:48.993Z,72.63
2023-02-07T05:25:17.571Z,74.37
2023-02-07T05:27:46.318Z,74.30
2023-02-07T05:30:15.725Z,67.93
2023-02-07T05:33:04.923Z,74.67
2023-02-07T05:35:35.136Z,70.10
2023-02-07T05:38:04.694Z,70.60
2023-02-07T05:40:33.447Z,77.10
2023-02-07T05:43:01.691Z,69.37
2023-02-07T05:45:29.982Z,72.17
2023-02-07T05:48:00.519Z,71.63
2023-02-07T05:50:29.731Z,78.73
2023-02-07T05:52:58.009Z,79.30
2023-02-07T05:55:26.873Z,73.47
2023-02-07T05:57:56.308Z,68.03
2023-02-07T06:00:27.218Z,71.50
2023-02-07T06:02:56.180Z,77.87
2023-02-07T06:05:31.655Z,75.50
2023-02-07T06:08:01.213Z,85.90
2023-02-07T06:10:30.772Z,79.93
2023-02-07T06:12:59.102Z,77.30
2023-02-07T06:15:27.663Z,83.83
2023-02-07T06:17:55.861Z,93.07
2023-02-07T06:20:25.568Z,104.10
2023-02-07T06:22:55.722Z,99.67
2023-02-07T06:25:24.177Z,108.70
2023-02-07T06:27:52.798Z,99.67
2023-02-07T06:30:24.391Z,100.70
2023-02-07T06:32:52.638Z,108.45
2023-02-07T06:35:21.354Z,107.90
2023-02-07T06:37:54.138Z,122.93
2023-02-07T06:40:25.091Z,124.27
2023-02-07T06:42:53.696Z,115.47
2023-02-07T06:45:22.191Z,119.40
2023-02-07T06:47:50.548Z,105.07
2023-02-07T06:50:20.046Z,105.00
2023-02-07T06:52:48.793Z,102.67
2023-02-07T06:55:17.586Z,115.60
2023-02-07T06:57:47.602Z,114.20
2023-02-07T07:00:17.802Z,113.43
2023-02-07T07:02:47.875Z,91.47
2023-02-07T07:05:16.665Z,103.23
2023-02-07T07:07:45.533Z,103.57
2023-02-07T07:10:17.057Z,104.20
2023-02-07T07:15:18.283Z,95.17
2023-02-07T07:17:46.934Z,91.60
2023-02-07T07:20:16.422Z,85.53
2023-02-07T07:22:44.662Z,91.30
2023-02-07T07:25:13.440Z,86.83
2023-02-07T07:27:41.855Z,91.43
2023-02-07T07:30:11.977Z,97.20
2023-02-07T07:32:42.483Z,81.93
2023-02-07T07:35:12.068Z,84.13
2023-02-07T07:37:41.857Z,84.43
2023-02-07T07:40:12.866Z,89.37
2023-02-07T07:42:43.268Z,113.30
2023-02-07T07:45:13.573Z,101.97
2023-02-07T07:47:43.454Z,100.55
2023-02-07T07:50:13.429Z,85.85
2023-02-07T07:52:43.347Z,95.50
2023-02-07T07:55:12.151Z,113.77
2023-02-07T07:57:40.546Z,92.22
2023-02-07T08:00:12.424Z,82.47
2023-02-07T08:02:48.974Z,80.50
2023-02-07T08:05:21.824Z,72.68
2023-02-07T08:07:51.784Z,69.60
2023-02-07T08:10:20.674Z,60.83
2023-02-07T08:12:50.535Z,72.90
2023-02-07T08:15:19.732Z,66.38
2023-02-07T08:17:49.581Z,69.78
2023-02-07T08:20:19.275Z,69.63
2023-02-07T08:22:48.076Z,70.55
2023-02-07T08:25:17.131Z,66.60
2023-02-07T08:27:46.174Z,71.15
2023-02-07T08:30:15.968Z,76.15
2023-02-07T08:32:45.414Z,78.18
2023-02-07T08:35:17.675Z,69.38
2023-02-07T08:37:49.869Z,70.57
2023-02-07T08:40:19.238Z,72.38
2023-02-07T08:42:48.223Z,72.78
2023-02-07T08:45:18.299Z,71.25
2023-02-07T08:47:47.674Z,67.10
2023-02-07T08:50:20.242Z,63.10
2023-02-07T08:52:50.407Z,68.55
2023-02-07T08:55:18.913Z,58.35
2023-02-07T08:57:48.515Z,58.90
2023-02-07T09:00:19.036Z,56.40
2023-02-07T09:02:48.291Z,59.22
2023-02-07T09:05:17.003Z,58.97
2023-02-07T09:07:48.737Z,59.55
2023-02-07T09:10:17.143Z,54.58
2023-02-07T09:12:45.445Z,60.60
2023-02-07T09:15:14.414Z,52.35
2023-02-07T09:17:45.895Z,50.92
2023-02-07T09:20:14.500Z,51.30
2023-02-07T09:23:00.856Z,55.22
2023-02-07T09:25:31.906Z,54.47
2023-02-07T09:28:00.694Z,46.05
2023-02-07T09:30:29.189Z,46.38
2023-02-07T09:32:59.633Z,48.97
2023-02-07T09:35:30.213Z,44.80
2023-02-07T09:37:58.975Z,43.92
2023-02-07T09:40:32.973Z,47.15
2023-02-07T09:43:11.741Z,46.22
2023-02-07T09:45:46.673Z,43.20
2023-02-07T09:48:19.872Z,43.83
2023-02-07T09:50:55.220Z,43.08
2023-02-07T09:53:28.076Z,40.92
2023-02-07T09:56:00.781Z,34.47
2023-02-07T09:58:40.835Z,36.75
2023-02-07T10:01:15.821Z,33.53
2023-02-07T10:03:50.464Z,35.75
2023-02-07T10:06:30.100Z,32.35
2023-02-07T10:09:04.203Z,33.73
2023-02-07T10:11:43.188Z,36.10
2023-02-07T10:14:28.416Z,32.85
2023-02-07T10:17:31.042Z,34.17
2023-02-07T10:20:18.540Z,28.50
2023-02-07T10:22:57.487Z,30.58
2023-02-07T10:25:37.384Z,32.60
2023-02-07T10:28:30.334Z,28.48
2023-02-07T10:31:04.100Z,31.27
2023-02-07T10:33:35.061Z,34.13
2023-02-07T10:36:06.600Z,34.75
2023-02-07T10:38:42.862Z,33.45
2023-02-07T10:41:17.971Z,35.22
2023-02-07T10:43:50.112Z,37.65
2023-02-07T10:46:22.080Z,33.95
2023-02-07T10:48:51.061Z,30.40
2023-02-07T10:51:29.130Z,30.85
2023-02-07T10:54:08.744Z,31.33
2023-02-07T10:56:42.988Z,34.65
2023-02-07T10:59:36.721Z,37.97
2023-02-07T11:02:39.829Z,34.35
2023-02-07T11:05:32.108Z,31.73
2023-02-07T11:08:02.732Z,28.15
2023-02-07T11:10:35.562Z,32.58
2023-02-07T11:13:06.302Z,32.85
2023-02-07T11:15:41.290Z,30.95
2023-02-07T11:18:24.808Z,31.80
2023-02-07T11:20:56.337Z,30.08
2023-02-07T11:23:25.592Z,29.60
2023-02-07T11:25:56.876Z,29.13
2023-02-07T11:28:30.374Z,27.05
2023-02-07T11:31:05.681Z,26.33
2023-02-07T11:33:36.681Z,25.40
2023-02-07T11:36:11.877Z,26.83
2023-02-07T11:38:42.893Z,25.42
2023-02-07T11:41:24.545Z,31.50
2023-02-07T11:43:55.887Z,26.63
2023-02-07T11:46:34.426Z,28.30
2023-02-07T11:49:04.674Z,25.23
2023-02-07T11:51:35.925Z,26.05
2023-02-07T11:54:08.850Z,24.70
2023-02-07T11:56:41.308Z,23.23
2023-02-07T11:59:16.573Z,26.75
2023-02-07T12:01:52.390Z,25.95
2023-02-07T12:04:26.188Z,23.77
2023-02-07T12:06:58.633Z,25.30
2023-02-07T12:09:35.121Z,24.95
2023-02-07T12:12:06.518Z,29.05
2023-02-07T12:14:40.796Z,30.10
2023-02-07T12:17:22.240Z,31.08
2023-02-07T12:22:27.492Z,33.58
2023-02-07T12:25:02.688Z,32.67
2023-02-07T12:27:36.654Z,32.90
2023-02-07T12:30:17.760Z,30.33
2023-02-07T12:32:54.691Z,31.92
2023-02-07T12:35:29.388Z,31.92
2023-02-07T12:38:06.728Z,32.75
2023-02-07T12:40:40.787Z,38.30
2023-02-07T12:43:13.963Z,33.45
2023-02-07T12:45:58.781Z,33.50
2023-02-07T12:48:39.646Z,36.75
2023-02-07T12:51:23.910Z,36.47
2023-02-07T12:54:10.833Z,34.33
2023-02-07T12:56:51.132Z,37.33
2023-02-07T12:59:26.729Z,36.30
2023-02-07T13:02:06.072Z,39.83
2023-02-07T13:05:08.381Z,34.95
2023-02-07T13:07:53.101Z,34.92
2023-02-07T13:10:28.849Z,34.45
2023-02-07T13:13:03.786Z,34.92
2023-02-07T13:15:39.310Z,30.00
2023-02-07T13:18:15.771Z,33.05
2023-02-07T13:20:55.029Z,32.33
2023-02-07T13:23:26.921Z,36.22
2023-02-07T13:25:58.301Z,34.17
2023-02-07T13:28:30.497Z,35.53
2023-02-07T13:31:00.249Z,36.22
2023-02-07T13:33:36.013Z,34.15
2023-02-07T13:36:18.930Z,32.70
2023-02-07T13:38:57.788Z,35.08
2023-02-07T13:41:37.800Z,36.92
2023-02-07T13:44:16.114Z,38.03
2023-02-07T13:47:01.780Z,38.60
2023-02-07T13:49:43.493Z,34.80
2023-02-07T13:52:18.238Z,39.75
2023-02-07T13:55:00.414Z,32.03
2023-02-07T13:58:01.132Z,29.30
2023-02-07T14:00:31.719Z,29.65
2023-02-07T14:03:03.787Z,30.77
2023-02-07T14:08:06.258Z,36.55
2023-02-07T14:10:47.428Z,36.53
2023-02-07T14:13:33.693Z,32.85
2023-02-07T14:16:09.169Z,32.22
2023-02-07T14:18:44.398Z,32.75
2023-02-07T14:21:27.261Z,32.25
2023-02-07T14:24:20.041Z,31.25
2023-02-07T14:27:00.613Z,35.20
2023-02-07T14:30:14.431Z,35.45
2023-02-07T14:32:47.187Z,36.53
2023-02-07T14:35:36.755Z,37.78
2023-02-07T14:38:21.536Z,37.25
2023-02-07T14:41:09.704Z,37.22
2023-02-07T14:44:07.085Z,34.70
2023-02-07T14:46:38.903Z,37.00
2023-02-07T14:49:15.647Z,36.10
2023-02-07T14:51:47.007Z,36.58
2023-02-07T14:54:21.388Z,36.13
2023-02-07T14:57:05.907Z,36.78
2023-02-07T14:59:41.127Z,38.28
2023-02-07T15:02:31.149Z,38.95
2023-02-07T15:05:10.756Z,35.63
2023-02-07T15:07:39.565Z,37.22
2023-02-07T15:10:16.049Z,37.08
2023-02-07T15:12:47.343Z,35.80
2023-02-07T15:15:21.675Z,36.97
2023-02-07T15:17:51.897Z,40.40
2023-02-07T15:20:24.443Z,36.55
2023-02-07T15:22:56.132Z,41.92
2023-02-07T15:25:26.784Z,38.75
2023-02-07T15:28:07.703Z,37.20
2023-02-07T15:30:38.366Z,40.85
2023-02-07T15:33:13.327Z,43.10
2023-02-07T15:35:42.153Z,39.95
2023-02-07T15:38:19.300Z,40.67
2023-02-07T15:40:48.546Z,40.53
2023-02-07T15:43:32.778Z,39.95
2023-02-07T15:46:08.646Z,39.15
2023-02-07T15:48:49.694Z,40.33
2023-02-07T15:51:23.184Z,36.58
2023-02-07T15:53:54.144Z,39.72
2023-02-07T15:56:22.621Z,35.70
2023-02-07T15:58:52.788Z,37.65
2023-02-07T16:01:25.747Z,37.42
2023-02-07T16:03:57.407Z,40.38
2023-02-07T16:06:29.096Z,38.28
2023-02-07T16:09:00.160Z,38.28
2023-02-07T16:11:41.535Z,40.83
2023-02-07T16:14:26.044Z,45.17
2023-02-07T16:16:56.289Z,40.70
2023-02-07T16:19:28.168Z,44.47
2023-02-07T16:22:03.887Z,44.00
2023-02-07T16:24:36.281Z,42.72
2023-02-07T16:27:05.651Z,48.20
2023-02-07T16:29:37.556Z,66.20
2023-02-07T16:32:07.818Z,58.75
2023-02-07T16:34:37.017Z,53.45
2023-02-07T16:37:10.148Z,53.58
2023-02-07T16:39:42.293Z,56.42
2023-02-07T16:42:16.433Z,51.92
2023-02-07T16:44:47.436Z,52.22
2023-02-07T16:47:16.287Z,48.90
2023-02-07T16:49:46.738Z,50.35
2023-02-07T16:52:15.146Z,45.65
2023-02-07T16:54:51.073Z,46.53
2023-02-07T16:57:21.453Z,51.05
2023-02-07T16:59:54.192Z,53.92
2023-02-07T17:02:27.059Z,60.47
2023-02-07T17:04:58.415Z,63.15
2023-02-07T17:07:26.671Z,57.70
2023-02-07T17:09:58.550Z,60.90
2023-02-07T17:12:27.399Z,57.90
2023-02-07T17:14:57.006Z,59.47
2023-02-07T17:17:25.992Z,63.80
2023-02-07T17:19:56.034Z,64.07
2023-02-07T17:22:24.709Z,63.90
2023-02-07T17:24:53.718Z,66.43
2023-02-07T17:27:22.139Z,74.22
2023-02-07T17:29:50.690Z,87.18
2023-02-07T17:32:21.698Z,92.40
2023-02-07T17:34:50.176Z,84.82
2023-02-07T17:37:18.869Z,74.30
2023-02-07T17:39:48.298Z,81.55
2023-02-07T17:42:18.536Z,90.70
2023-02-07T17:44:49.604Z,84.30
2023-02-07T17:47:20.376Z,90.33
2023-02-07T17:49:53.364Z,105.60
2023-02-07T17:52:25.278Z,95.53
2023-02-07T17:54:55.641Z,93.68
2023-02-07T17:57:25.962Z,91.43
2023-02-07T17:59:55.784Z,76.90
2023-02-07T18:02:27.736Z,84.55
2023-02-07T18:07:31.042Z,85.50
2023-02-07T18:10:02.171Z,90.55
2023-02-07T18:12:32.304Z,74.32
2023-02-07T18:15:01.006Z,79.38
2023-02-07T18:17:29.803Z,82.72
2023-02-07T18:20:00.848Z,77.70
2023-02-07T18:22:30.291Z,82.03
2023-02-07T18:25:01.012Z,82.13
2023-02-07T18:27:31.845Z,85.63
2023-02-07T18:30:02.097Z,81.28
2023-02-07T18:32:34.439Z,84.18
2023-02-07T18:35:06.222Z,87.40
2023-02-07T18:37:36.077Z,83.43
2023-02-07T18:40:10.318Z,83.95
2023-02-07T18:42:42.304Z,83.05
2023-02-07T18:45:13.762Z,86.25
2023-02-07T18:47:43.446Z,91.90
2023-02-07T18:50:19.603Z,126.03
2023-02-07T18:52:51.033Z,147.02
2023-02-07T18:55:20.683Z,143.40
2023-02-07T18:57:51.709Z,128.32
2023-02-07T19:00:21.362Z,134.95
2023-02-07T19:02:51.863Z,146.77
2023-02-07T19:05:22.736Z,142.70
2023-02-07T19:07:55.525Z,127.40
2023-02-07T19:10:28.043Z,146.05
2023-02-07T19:12:57.843Z,142.70
2023-02-07T19:15:29.365Z,128.65
2023-02-07T19:18:01.217Z,122.95
2023-02-07T19:20:35.902Z,139.13
2023-02-07T19:23:04.971Z,125.25
2023-02-07T19:25:34.770Z,128.10
2023-02-07T19:28:04.855Z,123.00
2023-02-07T19:30:35.214Z,132.13
2023-02-07T19:33:04.867Z,120.30
2023-02-07T19:35:38.327Z,118.57
2023-02-07T19:38:13.418Z,129.57
2023-02-07T19:40:46.184Z,115.32
2023-02-07T19:43:16.487Z,114.75
2023-02-07T19:45:48.663Z,115.38
2023-02-07T19:48:18.308Z,117.53
2023-02-07T19:50:48.732Z,129.60
2023-02-07T19:53:21.513Z,163.27
2023-02-07T19:55:54.420Z,150.75
2023-02-07T19:58:24.075Z,161.30
2023-02-07T20:00:54.999Z,139.98
2023-02-07T20:03:28.599Z,139.20
2023-02-07T20:06:04.180Z,139.00
2023-02-07T20:08:35.858Z,135.65
2023-02-07T20:11:06.994Z,139.13
2023-02-07T20:13:37.964Z,145.30
2023-02-07T20:16:09.476Z,137.23
2023-02-07T20:21:14.285Z,128.93
2023-02-07T20:23:46.617Z,131.57
2023-02-07T20:26:19.071Z,130.88
2023-02-07T20:28:51.696Z,114.88
2023-02-07T20:31:23.666Z,124.45
2023-02-07T20:33:54.650Z,120.78
2023-02-07T20:36:26.601Z,126.20
2023-02-07T20:38:58.404Z,132.38
2023-02-07T20:41:31.794Z,135.68
2023-02-07T20:44:05.059Z,121.18
2023-02-07T20:46:36.106Z,143.57
2023-02-07T20:49:07.662Z,131.80
2023-02-07T20:51:40.346Z,129.05
2023-02-07T20:54:09.244Z,120.25
2023-02-07T20:56:38.098Z,112.88
2023-02-07T20:59:07.137Z,124.47
2023-02-07T21:01:37.277Z,117.95
2023-02-07T21:04:07.342Z,116.63
2023-02-07T21:06:38.796Z,142.20
2023-02-07T21:11:39.438Z,131.98
2023-02-07T21:14:11.185Z,127.53
2023-02-07T21:19:09.956Z,133.02
2023-02-07T21:21:41.485Z,128.30
2023-02-07T21:24:11.819Z,128.27
2023-02-07T21:26:40.777Z,127.63
2023-02-07T21:29:11.943Z,136.18
2023-02-07T21:31:42.177Z,130.07
2023-02-07T21:34:13.781Z,132.15
2023-02-07T21:36:52.352Z,135.35
2023-02-07T21:39:34.816Z,139.05
2023-02-07T21:42:09.098Z,138.07
2023-02-07T21:44:38.692Z,142.45
2023-02-07T21:47:11.049Z,139.90
2023-02-07T21:49:43.384Z,147.55
2023-02-07T21:52:16.039Z,144.05
2023-02-07T21:54:46.479Z,136.60
2023-02-07T21:57:17.813Z,131.48
2023-02-07T21:59:50.311Z,134.25
2023-02-07T22:02:22.250Z,134.52
2023-02-07T22:07:24.905Z,123.97
2023-02-07T22:09:54.838Z,126.00
2023-02-07T22:12:29.000Z,122.43
2023-02-07T22:15:05.242Z,120.40
2023-02-07T22:17:36.849Z,122.10
2023-02-07T22:20:07.376Z,129.63
2023-02-07T22:22:45.710Z,136.65
2023-02-07T22:25:19.927Z,142.00
2023-02-07T22:27:52.293Z,138.07
2023-02-07T22:30:23.564Z,140.65
2023-02-07T22:32:56.981Z,134.25
2023-02-07T22:35:30.219Z,136.88
2023-02-07T22:38:03.224Z,137.05
2023-02-07T22:40:34.113Z,133.68
2023-02-07T22:43:07.498Z,132.80
2023-02-07T22:45:41.871Z,127.82
2023-02-07T22:48:11.519Z,131.02
2023-02-07T22:50:45.022Z,122.93
2023-02-07T22:53:21.063Z,121.13
2023-02-07T22:56:08.884Z,127.90
2023-02-07T22:58:43.475Z,125.07
2023-02-07T23:01:23.960Z,121.93
2023-02-07T23:03:55.547Z,121.70
2023-02-07T23:06:29.946Z,125.75
2023-02-07T23:09:11.313Z,115.55
2023-02-07T23:11:43.208Z,116.95
2023-02-07T23:14:16.424Z,117.10
2023-02-07T23:16:48.155Z,121.35
2023-02-07T23:19:21.412Z,115.55
2023-02-07T23:21:51.033Z,115.80
2023-02-07T23:24:22.775Z,108.88
2023-02-07T23:26:51.144Z,119.15
2023-02-07T23:29:21.370Z,106.80
2023-02-07T23:32:00.666Z,108.88
2023-02-07T23:34:30.598Z,105.68
2023-02-07T23:37:00.974Z,101.97
2023-02-07T23:39:32.205Z,95.65
2023-02-07T23:42:10.651Z,96.97
2023-02-07T23:44:41.053Z,102.13
2023-02-07T23:47:11.564Z,98.03
2023-02-07T23:49:42.315Z,104.88
2023-02-07T23:52:11.416Z,102.38
2023-02-07T23:54:43.290Z,92.10
2023-02-07T23:59:46.241Z,86.43
